sensor_id;sensor_type;location;lat;lon;timestamp;temperature;humidity
6841;DHT22;3458;53.678;14.080;2023-04-01T00:02:17;10.20;99.90
6841;DHT22;3458;53.678;14.080;2023-04-01T00:04:42;10.10;99.90
6841;DHT22;3458;53.678;14.080;2023-04-01T00:07:09;10.10;99.90
6841;DHT22;3458;53.678;14.080;2023-04-01T00:09:34;10.00;99.90
6841;DHT22;3458;53.678;14.080;2023-04-01T00:12:00;9.80;99.90
6841;DHT22;3458;53.678;14.080;2023-04-01T00:14:26;9.90;99.90
6841;DHT22;3458;53.678;14.080;2023-04-01T00:16:51;9.90;99.90
6841;DHT22;3458;53.678;14.080;2023-04-01T00:19:18;9.90;99.90
6841;DHT22;3458;53.678;14.080;2023-04-01T00:21:43;9.90;99.90
6841;DHT22;3458;53.678;14.080;2023-04-01T00:24:09;9.70;99.90
6841;DHT22;3458;53.678;14.080;2023-04-01T00:26:35;9.70;99.90
6841;DHT22;3458;53.678;14.080;2023-04-01T00:29:00;9.70;99.90
6841;DHT22;3458;53.678;14.080;2023-04-01T00:31:26;9.70;99.90
6841;DHT22;3458;53.678;14.080;2023-04-01T00:33:52;9.70;99.90
6841;DHT22;3458;53.678;14.080;2023-04-01T00:36:20;9.70;99.90
6841;DHT22;3458;53.678;14.080;2023-04-01T00:38:47;9.70;99.90
6841;DHT22;3458;53.678;14.080;2023-04-01T00:41:14;9.70;99.90
6841;DHT22;3458;53.678;14.080;2023-04-01T00:43:41;9.60;99.90
6841;DHT22;3458;53.678;14.080;2023-04-01T00:46:07;9.60;99.90
6841;DHT22;3458;53.678;14.080;2023-04-01T00:48:38;9.50;99.90
6841;DHT22;3458;53.678;14.080;2023-04-01T00:51:13;9.50;99.90
6841;DHT22;3458;53.678;14.080;2023-04-01T00:53:43;9.50;99.90
6841;DHT22;3458;53.678;14.080;2023-04-01T00:56:16;9.40;99.90
6841;DHT22;3458;53.678;14.080;2023-04-01T00:58:46;9.40;99.90
6841;DHT22;3458;53.678;14.080;2023-04-01T01:01:13;9.30;99.90
6841;DHT22;3458;53.678;14.080;2023-04-01T01:03:39;9.40;99.90
6841;DHT22;3458;53.678;14.080;2023-04-01T01:06:08;9.40;99.90
6841;DHT22;3458;53.678;14.080;2023-04-01T01:15:02;9.50;99.90
6841;DHT22;3458;53.678;14.080;2023-04-01T01:23:05;9.30;99.90
6841;DHT22;3458;53.678;14.080;2023-04-01T01:37:18;9.20;99.90
6841;DHT22;3458;53.678;14.080;2023-04-01T01:39:49;9.20;99.90
6841;DHT22;3458;53.678;14.080;2023-04-01T01:42:17;9.10;99.90
6841;DHT22;3458;53.678;14.080;2023-04-01T01:44:45;9.10;99.90
6841;DHT22;3458;53.678;14.080;2023-04-01T01:47:30;9.10;99.90
6841;DHT22;3458;53.678;14.080;2023-04-01T01:49:56;9.10;99.90
6841;DHT22;3458;53.678;14.080;2023-04-01T01:52:23;9.10;99.90
6841;DHT22;3458;53.678;14.080;2023-04-01T01:54:50;9.10;99.90
6841;DHT22;3458;53.678;14.080;2023-04-01T01:57:17;9.00;99.90
6841;DHT22;3458;53.678;14.080;2023-04-01T01:59:45;9.00;99.90
6841;DHT22;3458;53.678;14.080;2023-04-01T02:02:13;8.90;99.90
6841;DHT22;3458;53.678;14.080;2023-04-01T02:04:40;8.90;99.90
6841;DHT22;3458;53.678;14.080;2023-04-01T02:07:12;8.90;99.90
6841;DHT22;3458;53.678;14.080;2023-04-01T02:09:39;8.90;99.90
6841;DHT22;3458;53.678;14.080;2023-04-01T02:12:08;8.90;99.90
6841;DHT22;3458;53.678;14.080;2023-04-01T02:17:15;8.90;99.90
6841;DHT22;3458;53.678;14.080;2023-04-01T02:19:52;8.90;99.90
6841;DHT22;3458;53.678;14.080;2023-04-01T02:22:25;8.80;99.90
6841;DHT22;3458;53.678;14.080;2023-04-01T02:24:54;8.70;99.90
6841;DHT22;3458;53.678;14.080;2023-04-01T02:27:23;8.60;99.90
6841;DHT22;3458;53.678;14.080;2023-04-01T02:29:50;8.60;99.90
6841;DHT22;3458;53.678;14.080;2023-04-01T02:32:16;8.60;99.90
6841;DHT22;3458;53.678;14.080;2023-04-01T02:34:43;8.70;99.90
6841;DHT22;3458;53.678;14.080;2023-04-01T02:37:09;8.70;99.90
6841;DHT22;3458;53.678;14.080;2023-04-01T02:39:35;8.80;99.90
6841;DHT22;3458;53.678;14.080;2023-04-01T02:42:01;8.80;99.90
6841;DHT22;3458;53.678;14.080;2023-04-01T02:44:26;8.80;99.90
6841;DHT22;3458;53.678;14.080;2023-04-01T02:46:52;8.70;99.90
6841;DHT22;3458;53.678;14.080;2023-04-01T02:49:18;8.70;99.90
6841;DHT22;3458;53.678;14.080;2023-04-01T02:51:43;8.60;99.90
6841;DHT22;3458;53.678;14.080;2023-04-01T02:54:09;8.50;99.90
6841;DHT22;3458;53.678;14.080;2023-04-01T02:56:34;8.40;99.90
6841;DHT22;3458;53.678;14.080;2023-04-01T02:59:00;8.40;99.90
6841;DHT22;3458;53.678;14.080;2023-04-01T03:01:25;8.30;99.90
6841;DHT22;3458;53.678;14.080;2023-04-01T03:03:51;8.30;99.90
6841;DHT22;3458;53.678;14.080;2023-04-01T03:06:17;8.30;99.90
6841;DHT22;3458;53.678;14.080;2023-04-01T03:08:43;8.40;99.90
6841;DHT22;3458;53.678;14.080;2023-04-01T03:11:09;8.20;99.90
6841;DHT22;3458;53.678;14.080;2023-04-01T03:13:35;8.20;99.90
6841;DHT22;3458;53.678;14.080;2023-04-01T03:16:01;8.20;99.90
6841;DHT22;3458;53.678;14.080;2023-04-01T03:18:26;8.10;99.90
6841;DHT22;3458;53.678;14.080;2023-04-01T03:20:52;8.20;99.90
6841;DHT22;3458;53.678;14.080;2023-04-01T03:23:17;8.10;99.90
6841;DHT22;3458;53.678;14.080;2023-04-01T03:25:45;8.00;99.90
6841;DHT22;3458;53.678;14.080;2023-04-01T03:28:10;8.10;99.90
6841;DHT22;3458;53.678;14.080;2023-04-01T03:30:37;8.20;99.90
6841;DHT22;3458;53.678;14.080;2023-04-01T03:33:03;8.10;99.90
6841;DHT22;3458;53.678;14.080;2023-04-01T03:35:28;8.10;99.90
6841;DHT22;3458;53.678;14.080;2023-04-01T03:37:54;8.00;99.90
6841;DHT22;3458;53.678;14.080;2023-04-01T03:40:20;8.10;99.90
6841;DHT22;3458;53.678;14.080;2023-04-01T03:42:46;8.00;99.90
6841;DHT22;3458;53.678;14.080;2023-04-01T03:45:12;8.00;99.90
6841;DHT22;3458;53.678;14.080;2023-04-01T03:47:38;8.10;99.90
6841;DHT22;3458;53.678;14.080;2023-04-01T03:50:04;8.10;99.90
6841;DHT22;3458;53.678;14.080;2023-04-01T03:52:30;8.20;99.90
6841;DHT22;3458;53.678;14.080;2023-04-01T03:54:56;8.20;99.90
6841;DHT22;3458;53.678;14.080;2023-04-01T03:57:21;8.00;99.90
6841;DHT22;3458;53.678;14.080;2023-04-01T03:59:47;8.10;99.90
6841;DHT22;3458;53.678;14.080;2023-04-01T04:02:12;8.00;99.90
6841;DHT22;3458;53.678;14.080;2023-04-01T04:04:38;8.00;99.90
6841;DHT22;3458;53.678;14.080;2023-04-01T04:07:04;8.00;99.90
6841;DHT22;3458;53.678;14.080;2023-04-01T04:09:33;7.90;99.90
6841;DHT22;3458;53.678;14.080;2023-04-01T04:11:59;7.80;99.90
6841;DHT22;3458;53.678;14.080;2023-04-01T04:14:24;7.80;99.90
6841;DHT22;3458;53.678;14.080;2023-04-01T04:16:50;7.80;99.90
6841;DHT22;3458;53.678;14.080;2023-04-01T04:19:15;7.90;99.90
6841;DHT22;3458;53.678;14.080;2023-04-01T04:21:41;7.90;99.90
6841;DHT22;3458;53.678;14.080;2023-04-01T04:24:07;7.90;99.90
6841;DHT22;3458;53.678;14.080;2023-04-01T04:26:33;7.90;99.90
6841;DHT22;3458;53.678;14.080;2023-04-01T04:28:58;7.80;99.90
6841;DHT22;3458;53.678;14.080;2023-04-01T04:31:24;7.80;99.90
6841;DHT22;3458;53.678;14.080;2023-04-01T04:33:50;7.90;99.90
6841;DHT22;3458;53.678;14.080;2023-04-01T04:36:17;7.80;99.90
6841;DHT22;3458;53.678;14.080;2023-04-01T04:38:42;7.80;99.90
6841;DHT22;3458;53.678;14.080;2023-04-01T04:41:09;7.80;99.90
6841;DHT22;3458;53.678;14.080;2023-04-01T04:43:35;7.70;99.90
6841;DHT22;3458;53.678;14.080;2023-04-01T04:46:05;7.80;99.90
6841;DHT22;3458;53.678;14.080;2023-04-01T04:48:30;7.80;99.90
6841;DHT22;3458;53.678;14.080;2023-04-01T04:50:56;7.90;99.90
6841;DHT22;3458;53.678;14.080;2023-04-01T04:53:21;7.80;99.90
6841;DHT22;3458;53.678;14.080;2023-04-01T04:55:49;7.70;99.90
6841;DHT22;3458;53.678;14.080;2023-04-01T04:58:15;7.80;99.90
6841;DHT22;3458;53.678;14.080;2023-04-01T05:00:41;7.70;99.90
6841;DHT22;3458;53.678;14.080;2023-04-01T05:03:07;7.70;99.90
6841;DHT22;3458;53.678;14.080;2023-04-01T05:05:33;7.80;99.90
6841;DHT22;3458;53.678;14.080;2023-04-01T05:07:58;7.80;99.90
6841;DHT22;3458;53.678;14.080;2023-04-01T05:10:24;7.80;99.90
6841;DHT22;3458;53.678;14.080;2023-04-01T05:12:49;7.80;99.90
6841;DHT22;3458;53.678;14.080;2023-04-01T05:15:15;7.70;99.90
6841;DHT22;3458;53.678;14.080;2023-04-01T05:17:41;7.60;99.90
6841;DHT22;3458;53.678;14.080;2023-04-01T05:20:06;7.70;99.90
6841;DHT22;3458;53.678;14.080;2023-04-01T05:22:32;7.70;99.90
6841;DHT22;3458;53.678;14.080;2023-04-01T05:24:58;7.60;99.90
6841;DHT22;3458;53.678;14.080;2023-04-01T05:27:23;7.60;99.90
6841;DHT22;3458;53.678;14.080;2023-04-01T05:29:49;7.70;99.90
6841;DHT22;3458;53.678;14.080;2023-04-01T05:32:15;7.70;99.90
6841;DHT22;3458;53.678;14.080;2023-04-01T05:34:40;7.70;99.90
6841;DHT22;3458;53.678;14.080;2023-04-01T05:37:06;7.70;99.90
6841;DHT22;3458;53.678;14.080;2023-04-01T05:39:36;7.70;99.90
6841;DHT22;3458;53.678;14.080;2023-04-01T05:42:02;7.80;99.90
6841;DHT22;3458;53.678;14.080;2023-04-01T05:44:28;7.80;99.90
6841;DHT22;3458;53.678;14.080;2023-04-01T05:46:53;7.90;99.90
6841;DHT22;3458;53.678;14.080;2023-04-01T05:49:19;7.80;99.90
6841;DHT22;3458;53.678;14.080;2023-04-01T05:51:44;7.80;99.90
6841;DHT22;3458;53.678;14.080;2023-04-01T05:54:10;7.80;99.90
6841;DHT22;3458;53.678;14.080;2023-04-01T05:56:35;7.90;99.90
6841;DHT22;3458;53.678;14.080;2023-04-01T05:59:01;7.90;99.90
6841;DHT22;3458;53.678;14.080;2023-04-01T06:01:26;7.90;99.90
6841;DHT22;3458;53.678;14.080;2023-04-01T06:03:52;8.00;99.90
6841;DHT22;3458;53.678;14.080;2023-04-01T06:06:26;7.90;99.90
6841;DHT22;3458;53.678;14.080;2023-04-01T06:08:53;7.90;99.90
6841;DHT22;3458;53.678;14.080;2023-04-01T06:11:27;7.70;99.90
6841;DHT22;3458;53.678;14.080;2023-04-01T06:14:10;7.60;99.90
6841;DHT22;3458;53.678;14.080;2023-04-01T06:22:16;7.70;99.90
6841;DHT22;3458;53.678;14.080;2023-04-01T06:25:06;7.80;99.90
6841;DHT22;3458;53.678;14.080;2023-04-01T06:30:42;7.90;99.90
6841;DHT22;3458;53.678;14.080;2023-04-01T06:33:30;7.90;99.90
6841;DHT22;3458;53.678;14.080;2023-04-01T06:36:12;7.90;99.90
6841;DHT22;3458;53.678;14.080;2023-04-01T06:44:23;7.90;99.90
6841;DHT22;3458;53.678;14.080;2023-04-01T06:46:59;8.00;99.90
6841;DHT22;3458;53.678;14.080;2023-04-01T06:49:55;7.80;99.90
6841;DHT22;3458;53.678;14.080;2023-04-01T06:52:34;7.90;99.90
6841;DHT22;3458;53.678;14.080;2023-04-01T06:55:29;7.90;99.90
6841;DHT22;3458;53.678;14.080;2023-04-01T06:57:59;7.90;99.90
6841;DHT22;3458;53.678;14.080;2023-04-01T07:00:30;8.00;99.90
6841;DHT22;3458;53.678;14.080;2023-04-01T07:05:43;7.90;99.90
6841;DHT22;3458;53.678;14.080;2023-04-01T07:08:13;7.80;99.90
6841;DHT22;3458;53.678;14.080;2023-04-01T07:10:55;7.80;99.90
6841;DHT22;3458;53.678;14.080;2023-04-01T07:13:39;7.80;99.90
6841;DHT22;3458;53.678;14.080;2023-04-01T07:16:35;7.80;99.90
6841;DHT22;3458;53.678;14.080;2023-04-01T07:19:18;7.80;99.90
6841;DHT22;3458;53.678;14.080;2023-04-01T07:21:49;7.80;99.90
6841;DHT22;3458;53.678;14.080;2023-04-01T07:24:43;7.70;99.90
6841;DHT22;3458;53.678;14.080;2023-04-01T07:27:13;7.70;99.90
6841;DHT22;3458;53.678;14.080;2023-04-01T07:29:39;7.60;99.90
6841;DHT22;3458;53.678;14.080;2023-04-01T07:32:19;7.60;99.90
6841;DHT22;3458;53.678;14.080;2023-04-01T07:35:21;7.60;99.90
6841;DHT22;3458;53.678;14.080;2023-04-01T07:40:37;7.50;99.90
6841;DHT22;3458;53.678;14.080;2023-04-01T07:45:47;7.60;99.90
6841;DHT22;3458;53.678;14.080;2023-04-01T07:48:20;7.60;99.90
6841;DHT22;3458;53.678;14.080;2023-04-01T07:50:57;7.50;99.90
6841;DHT22;3458;53.678;14.080;2023-04-01T07:53:36;7.50;99.90
6841;DHT22;3458;53.678;14.080;2023-04-01T07:56:09;7.60;99.90
6841;DHT22;3458;53.678;14.080;2023-04-01T07:59:02;7.50;99.90
6841;DHT22;3458;53.678;14.080;2023-04-01T08:01:41;7.60;99.90
6841;DHT22;3458;53.678;14.080;2023-04-01T08:04:37;7.50;99.90
6841;DHT22;3458;53.678;14.080;2023-04-01T08:07:11;7.50;99.90
6841;DHT22;3458;53.678;14.080;2023-04-01T08:10:00;7.40;99.90
6841;DHT22;3458;53.678;14.080;2023-04-01T08:21:17;7.60;99.90
6841;DHT22;3458;53.678;14.080;2023-04-01T08:23:47;7.50;99.90
6841;DHT22;3458;53.678;14.080;2023-04-01T08:29:02;7.60;99.90
6841;DHT22;3458;53.678;14.080;2023-04-01T08:31:37;7.60;99.90
6841;DHT22;3458;53.678;14.080;2023-04-01T08:34:08;7.60;99.90
6841;DHT22;3458;53.678;14.080;2023-04-01T08:36:38;7.50;99.90
6841;DHT22;3458;53.678;14.080;2023-04-01T08:39:09;7.40;99.90
6841;DHT22;3458;53.678;14.080;2023-04-01T08:47:40;7.50;99.90
6841;DHT22;3458;53.678;14.080;2023-04-01T08:53:25;7.50;99.90
6841;DHT22;3458;53.678;14.080;2023-04-01T08:56:01;7.50;99.90
6841;DHT22;3458;53.678;14.080;2023-04-01T08:58:53;7.50;99.90
6841;DHT22;3458;53.678;14.080;2023-04-01T09:04:18;7.50;99.90
6841;DHT22;3458;53.678;14.080;2023-04-01T09:07:07;7.40;99.90
6841;DHT22;3458;53.678;14.080;2023-04-01T09:09:53;7.40;99.90
6841;DHT22;3458;53.678;14.080;2023-04-01T09:12:43;7.40;99.90
6841;DHT22;3458;53.678;14.080;2023-04-01T09:15:42;7.40;99.90
6841;DHT22;3458;53.678;14.080;2023-04-01T09:21:31;7.40;99.90
6841;DHT22;3458;53.678;14.080;2023-04-01T09:27:09;7.40;99.90
6841;DHT22;3458;53.678;14.080;2023-04-01T09:33:15;7.30;99.90
6841;DHT22;3458;53.678;14.080;2023-04-01T09:36:02;7.40;99.90
6841;DHT22;3458;53.678;14.080;2023-04-01T09:41:19;7.40;99.90
6841;DHT22;3458;53.678;14.080;2023-04-01T09:44:21;7.30;99.90
6841;DHT22;3458;53.678;14.080;2023-04-01T09:47:28;7.30;99.90
6841;DHT22;3458;53.678;14.080;2023-04-01T09:50:17;7.40;99.90
6841;DHT22;3458;53.678;14.080;2023-04-01T09:53:28;7.40;99.90
6841;DHT22;3458;53.678;14.080;2023-04-01T09:59:14;7.20;99.90
6841;DHT22;3458;53.678;14.080;2023-04-01T10:05:04;7.30;99.90
6841;DHT22;3458;53.678;14.080;2023-04-01T10:08:06;7.40;99.90
6841;DHT22;3458;53.678;14.080;2023-04-01T10:10:48;7.30;99.90
6841;DHT22;3458;53.678;14.080;2023-04-01T10:16:50;7.40;99.90
6841;DHT22;3458;53.678;14.080;2023-04-01T10:28:21;7.50;99.90
6841;DHT22;3458;53.678;14.080;2023-04-01T10:31:13;7.50;99.90
6841;DHT22;3458;53.678;14.080;2023-04-01T10:36:54;7.40;99.90
6841;DHT22;3458;53.678;14.080;2023-04-01T10:39:37;7.40;99.90
6841;DHT22;3458;53.678;14.080;2023-04-01T10:45:18;7.30;99.90
6841;DHT22;3458;53.678;14.080;2023-04-01T10:53:34;7.40;99.90
6841;DHT22;3458;53.678;14.080;2023-04-01T10:56:32;7.30;99.90
6841;DHT22;3458;53.678;14.080;2023-04-01T11:02:27;7.20;99.90
6841;DHT22;3458;53.678;14.080;2023-04-01T11:05:30;7.20;99.90
6841;DHT22;3458;53.678;14.080;2023-04-01T11:22:37;7.40;99.90
6841;DHT22;3458;53.678;14.080;2023-04-01T11:31:04;7.50;99.90
6841;DHT22;3458;53.678;14.080;2023-04-01T11:33:44;7.60;99.90
6841;DHT22;3458;53.678;14.080;2023-04-01T11:36:37;7.60;99.90
6841;DHT22;3458;53.678;14.080;2023-04-01T11:39:44;7.60;99.90
6841;DHT22;3458;53.678;14.080;2023-04-01T11:50:58;7.50;99.90
6841;DHT22;3458;53.678;14.080;2023-04-01T11:53:44;7.50;99.90
6841;DHT22;3458;53.678;14.080;2023-04-01T11:59:08;7.60;99.90
6841;DHT22;3458;53.678;14.080;2023-04-01T12:07:19;7.50;99.90
6841;DHT22;3458;53.678;14.080;2023-04-01T12:10:15;7.50;99.90
6841;DHT22;3458;53.678;14.080;2023-04-01T12:12:57;7.50;99.90
6841;DHT22;3458;53.678;14.080;2023-04-01T12:21:40;7.50;99.90
6841;DHT22;3458;53.678;14.080;2023-04-01T12:24:35;7.40;99.90
6841;DHT22;3458;53.678;14.080;2023-04-01T12:27:29;7.50;99.90
6841;DHT22;3458;53.678;14.080;2023-04-01T12:30:12;7.40;99.90
6841;DHT22;3458;53.678;14.080;2023-04-01T12:33:17;7.50;99.90
6841;DHT22;3458;53.678;14.080;2023-04-01T12:35:55;7.50;99.90
6841;DHT22;3458;53.678;14.080;2023-04-01T12:41:51;7.30;99.90
6841;DHT22;3458;53.678;14.080;2023-04-01T12:44:34;7.20;99.90
6841;DHT22;3458;53.678;14.080;2023-04-01T12:47:30;7.20;99.90
6841;DHT22;3458;53.678;14.080;2023-04-01T12:50:22;7.20;99.90
6841;DHT22;3458;53.678;14.080;2023-04-01T12:55:42;7.10;99.90
6841;DHT22;3458;53.678;14.080;2023-04-01T12:58:22;7.10;99.90
6841;DHT22;3458;53.678;14.080;2023-04-01T13:03:33;7.20;99.90
6841;DHT22;3458;53.678;14.080;2023-04-01T13:12:00;7.20;99.90
6841;DHT22;3458;53.678;14.080;2023-04-01T13:15:06;7.20;99.90
6841;DHT22;3458;53.678;14.080;2023-04-01T13:17:58;7.10;99.90
6841;DHT22;3458;53.678;14.080;2023-04-01T13:26:30;7.00;99.90
6841;DHT22;3458;53.678;14.080;2023-04-01T13:29:10;7.00;99.90
6841;DHT22;3458;53.678;14.080;2023-04-01T13:37:31;6.90;99.90
6841;DHT22;3458;53.678;14.080;2023-04-01T13:43:12;6.90;99.90
6841;DHT22;3458;53.678;14.080;2023-04-01T13:49:07;7.00;99.90
6841;DHT22;3458;53.678;14.080;2023-04-01T13:56:57;6.80;99.90
6841;DHT22;3458;53.678;14.080;2023-04-01T14:07:50;6.80;99.90
6841;DHT22;3458;53.678;14.080;2023-04-01T14:10:43;6.70;99.90
6841;DHT22;3458;53.678;14.080;2023-04-01T14:13:34;6.80;99.90
6841;DHT22;3458;53.678;14.080;2023-04-01T14:18:51;6.80;99.90
6841;DHT22;3458;53.678;14.080;2023-04-01T14:21:41;6.80;99.90
6841;DHT22;3458;53.678;14.080;2023-04-01T14:38:17;6.60;99.90
6841;DHT22;3458;53.678;14.080;2023-04-01T14:40:56;6.50;99.90
6841;DHT22;3458;53.678;14.080;2023-04-01T14:51:39;6.40;99.90
6841;DHT22;3458;53.678;14.080;2023-04-01T14:54:13;6.40;99.90
6841;DHT22;3458;53.678;14.080;2023-04-01T15:04:37;6.50;99.90
6841;DHT22;3458;53.678;14.080;2023-04-01T15:07:19;6.50;99.90
6841;DHT22;3458;53.678;14.080;2023-04-01T15:09:55;6.50;99.90
6841;DHT22;3458;53.678;14.080;2023-04-01T15:12:54;6.40;99.90
6841;DHT22;3458;53.678;14.080;2023-04-01T15:15:39;6.30;99.90
6841;DHT22;3458;53.678;14.080;2023-04-01T15:24:10;6.20;99.90
6841;DHT22;3458;53.678;14.080;2023-04-01T15:47:42;6.00;99.90
6841;DHT22;3458;53.678;14.080;2023-04-01T15:56:19;6.10;99.90
6841;DHT22;3458;53.678;14.080;2023-04-01T15:58:59;6.10;99.90
6841;DHT22;3458;53.678;14.080;2023-04-01T16:04:41;6.10;99.90
6841;DHT22;3458;53.678;14.080;2023-04-01T16:07:17;6.10;99.90
6841;DHT22;3458;53.678;14.080;2023-04-01T16:18:23;5.90;99.90
6841;DHT22;3458;53.678;14.080;2023-04-01T16:21:05;6.00;99.90
6841;DHT22;3458;53.678;14.080;2023-04-01T16:23:56;5.90;99.90
6841;DHT22;3458;53.678;14.080;2023-04-01T16:26:25;5.90;99.90
6841;DHT22;3458;53.678;14.080;2023-04-01T16:31:34;5.80;99.90
6841;DHT22;3458;53.678;14.080;2023-04-01T16:34:30;5.80;99.90
6841;DHT22;3458;53.678;14.080;2023-04-01T16:42:39;5.80;99.90
6841;DHT22;3458;53.678;14.080;2023-04-01T16:47:49;5.90;99.90
6841;DHT22;3458;53.678;14.080;2023-04-01T16:50:22;6.00;99.90
6841;DHT22;3458;53.678;14.080;2023-04-01T16:52:59;5.90;99.90
6841;DHT22;3458;53.678;14.080;2023-04-01T16:55:42;5.80;99.90
6841;DHT22;3458;53.678;14.080;2023-04-01T16:58:10;5.70;99.90
6841;DHT22;3458;53.678;14.080;2023-04-01T17:00:47;5.70;99.90
6841;DHT22;3458;53.678;14.080;2023-04-01T17:03:22;5.70;99.90
6841;DHT22;3458;53.678;14.080;2023-04-01T17:11:57;5.70;99.90
6841;DHT22;3458;53.678;14.080;2023-04-01T17:15:02;5.60;99.90
6841;DHT22;3458;53.678;14.080;2023-04-01T17:23:04;5.40;99.90
6841;DHT22;3458;53.678;14.080;2023-04-01T17:25:36;5.40;99.90
6841;DHT22;3458;53.678;14.080;2023-04-01T17:36:41;5.40;99.90
6841;DHT22;3458;53.678;14.080;2023-04-01T17:49:54;5.30;99.90
6841;DHT22;3458;53.678;14.080;2023-04-01T17:52:46;5.30;99.90
6841;DHT22;3458;53.678;14.080;2023-04-01T17:55:43;5.20;99.90
6841;DHT22;3458;53.678;14.080;2023-04-01T17:58:22;5.20;99.90
6841;DHT22;3458;53.678;14.080;2023-04-01T18:01:22;5.20;99.90
6841;DHT22;3458;53.678;14.080;2023-04-01T18:09:44;5.10;99.90
6841;DHT22;3458;53.678;14.080;2023-04-01T18:12:26;5.00;99.90
6841;DHT22;3458;53.678;14.080;2023-04-01T18:17:57;5.00;99.90
6841;DHT22;3458;53.678;14.080;2023-04-01T18:23:24;4.90;99.90
6841;DHT22;3458;53.678;14.080;2023-04-01T18:26:02;5.00;99.90
6841;DHT22;3458;53.678;14.080;2023-04-01T18:28:42;5.00;99.90
6841;DHT22;3458;53.678;14.080;2023-04-01T18:31:17;5.10;99.90
6841;DHT22;3458;53.678;14.080;2023-04-01T18:33:58;5.20;99.90
6841;DHT22;3458;53.678;14.080;2023-04-01T18:36:46;5.30;99.90
6841;DHT22;3458;53.678;14.080;2023-04-01T18:39:15;5.40;99.90
6841;DHT22;3458;53.678;14.080;2023-04-01T18:42:14;5.40;99.90
6841;DHT22;3458;53.678;14.080;2023-04-01T18:44:50;5.30;99.90
6841;DHT22;3458;53.678;14.080;2023-04-01T18:47:54;5.30;99.90
6841;DHT22;3458;53.678;14.080;2023-04-01T18:50:59;5.30;99.90
6841;DHT22;3458;53.678;14.080;2023-04-01T18:59:03;5.20;99.90
6841;DHT22;3458;53.678;14.080;2023-04-01T19:01:47;5.20;99.90
6841;DHT22;3458;53.678;14.080;2023-04-01T19:04:26;5.20;99.90
6841;DHT22;3458;53.678;14.080;2023-04-01T19:06:55;5.20;99.90
6841;DHT22;3458;53.678;14.080;2023-04-01T19:09:44;5.20;99.90
6841;DHT22;3458;53.678;14.080;2023-04-01T19:15:21;5.10;99.90
6841;DHT22;3458;53.678;14.080;2023-04-01T19:20:47;5.10;99.90
6841;DHT22;3458;53.678;14.080;2023-04-01T19:23:52;5.10;99.90
6841;DHT22;3458;53.678;14.080;2023-04-01T19:26:42;5.10;99.90
6841;DHT22;3458;53.678;14.080;2023-04-01T19:29:36;5.00;99.90
6841;DHT22;3458;53.678;14.080;2023-04-01T19:35:32;4.90;99.90
6841;DHT22;3458;53.678;14.080;2023-04-01T19:38:07;5.00;99.90
6841;DHT22;3458;53.678;14.080;2023-04-01T19:40:59;5.10;99.90
6841;DHT22;3458;53.678;14.080;2023-04-01T19:44:28;5.20;99.90
6841;DHT22;3458;53.678;14.080;2023-04-01T19:49:49;5.20;99.90
6841;DHT22;3458;53.678;14.080;2023-04-01T19:52:23;5.20;99.90
6841;DHT22;3458;53.678;14.080;2023-04-01T19:57:52;5.10;99.90
6841;DHT22;3458;53.678;14.080;2023-04-01T20:00:53;5.10;99.90
6841;DHT22;3458;53.678;14.080;2023-04-01T20:06:21;5.10;99.90
6841;DHT22;3458;53.678;14.080;2023-04-01T20:09:06;5.10;99.90
6841;DHT22;3458;53.678;14.080;2023-04-01T20:11:52;5.10;99.90
6841;DHT22;3458;53.678;14.080;2023-04-01T20:14:29;5.00;99.90
6841;DHT22;3458;53.678;14.080;2023-04-01T20:17:02;5.10;99.90
6841;DHT22;3458;53.678;14.080;2023-04-01T20:19:53;5.00;99.90
6841;DHT22;3458;53.678;14.080;2023-04-01T20:22:36;5.10;99.90
6841;DHT22;3458;53.678;14.080;2023-04-01T20:25:17;5.00;99.90
6841;DHT22;3458;53.678;14.080;2023-04-01T20:30:59;4.90;99.90
6841;DHT22;3458;53.678;14.080;2023-04-01T20:36:58;5.10;99.90
6841;DHT22;3458;53.678;14.080;2023-04-01T20:42:34;5.20;99.90
6841;DHT22;3458;53.678;14.080;2023-04-01T20:50:48;5.10;99.90
6841;DHT22;3458;53.678;14.080;2023-04-01T20:53:20;5.00;99.90
6841;DHT22;3458;53.678;14.080;2023-04-01T21:01:34;5.00;99.90
6841;DHT22;3458;53.678;14.080;2023-04-01T21:04:27;5.00;99.90
6841;DHT22;3458;53.678;14.080;2023-04-01T21:07:28;5.10;99.90
6841;DHT22;3458;53.678;14.080;2023-04-01T21:10:25;5.10;99.90
6841;DHT22;3458;53.678;14.080;2023-04-01T21:13:18;5.00;99.90
6841;DHT22;3458;53.678;14.080;2023-04-01T21:18:50;4.90;99.90
6841;DHT22;3458;53.678;14.080;2023-04-01T21:24:41;5.00;99.90
6841;DHT22;3458;53.678;14.080;2023-04-01T21:27:31;5.10;99.90
6841;DHT22;3458;53.678;14.080;2023-04-01T21:33:07;5.20;99.90
6841;DHT22;3458;53.678;14.080;2023-04-01T21:38:42;5.20;99.90
6841;DHT22;3458;53.678;14.080;2023-04-01T21:41:34;5.20;99.90
6841;DHT22;3458;53.678;14.080;2023-04-01T21:44:20;5.10;99.90
6841;DHT22;3458;53.678;14.080;2023-04-01T21:50:09;5.00;99.90
6841;DHT22;3458;53.678;14.080;2023-04-01T21:55:51;4.90;99.90
6841;DHT22;3458;53.678;14.080;2023-04-01T22:02:03;5.00;99.90
6841;DHT22;3458;53.678;14.080;2023-04-01T22:07:16;5.00;99.90
6841;DHT22;3458;53.678;14.080;2023-04-01T22:12:37;4.90;99.90
6841;DHT22;3458;53.678;14.080;2023-04-01T22:15:17;4.90;99.90
6841;DHT22;3458;53.678;14.080;2023-04-01T22:17:58;5.00;99.90
6841;DHT22;3458;53.678;14.080;2023-04-01T22:26:08;4.90;99.90
6841;DHT22;3458;53.678;14.080;2023-04-01T22:31:48;4.90;99.90
6841;DHT22;3458;53.678;14.080;2023-04-01T22:34:49;4.90;99.90
6841;DHT22;3458;53.678;14.080;2023-04-01T22:37:26;4.90;99.90
6841;DHT22;3458;53.678;14.080;2023-04-01T22:40:20;4.90;99.90
6841;DHT22;3458;53.678;14.080;2023-04-01T22:42:58;4.90;99.90
6841;DHT22;3458;53.678;14.080;2023-04-01T22:56:21;5.00;99.90
6841;DHT22;3458;53.678;14.080;2023-04-01T22:59:14;5.00;99.90
6841;DHT22;3458;53.678;14.080;2023-04-01T23:02:01;5.00;99.90
6841;DHT22;3458;53.678;14.080;2023-04-01T23:04:33;5.00;99.90
6841;DHT22;3458;53.678;14.080;2023-04-01T23:07:05;5.00;99.90
6841;DHT22;3458;53.678;14.080;2023-04-01T23:09:45;5.00;99.90
6841;DHT22;3458;53.678;14.080;2023-04-01T23:12:14;5.10;99.90
6841;DHT22;3458;53.678;14.080;2023-04-01T23:14:46;5.00;99.90
6841;DHT22;3458;53.678;14.080;2023-04-01T23:17:37;5.00;99.90
6841;DHT22;3458;53.678;14.080;2023-04-01T23:22:51;4.80;99.90
6841;DHT22;3458;53.678;14.080;2023-04-01T23:35:55;4.90;99.90
6841;DHT22;3458;53.678;14.080;2023-04-01T23:38:23;4.90;99.90
6841;DHT22;3458;53.678;14.080;2023-04-01T23:40:51;5.00;99.90
6841;DHT22;3458;53.678;14.080;2023-04-01T23:43:26;4.90;99.90
6841;DHT22;3458;53.678;14.080;2023-04-01T23:45:57;4.90;99.90
6841;DHT22;3458;53.678;14.080;2023-04-01T23:48:37;4.90;99.90
6841;DHT22;3458;53.678;14.080;2023-04-01T23:51:03;4.80;99.90
6841;DHT22;3458;53.678;14.080;2023-04-01T23:53:43;4.90;99.90
6841;DHT22;3458;53.678;14.080;2023-04-01T23:56:09;4.90;99.90
6841;DHT22;3458;53.678;14.080;2023-04-01T23:58:44;4.90;99.90
